Terminal Aerodrome Forecast
Issued by NWS

Home | Current Version | Previous Version | Text Only | Print | Product List | Glossary On
Versions: 1 2 3 4 5 6 7 8 9 10 11 12 13 14 15 16
658
FTUS41 KBTV 291728
TAFMSS
TAF
KMSS 291728Z 2918/3018 31008G15KT P6SM SCT045
     FM300000 VRB03KT P6SM SKC
      TEMPO 3007/3011 3SM BR
     FM301400 23008KT P6SM BKN200=

USA.gov is the U.S. government's official web portal to all federal, state and local government web resources and services.